Bechar, Algeria
Current Conditions -  °F | °C
As of 7:00 PM on Tuesday 21 Oct 2014 (Local Time) from DAOR Reporting Station
Clear Clear  
Wind Chill: 82°   Ceiling: Unl
Heat Index: 82°   Visibility: 6mi
Dew Point: 32°   Wind: 5mph
Humidity: 16%   Direction: 290°WNW
Pressure: 30.24"   Gusts: NA
Location:  31.62°N, 2.23°W
Report Text: DAOR 211800Z 29004KT CAVOK 28/M00 Q1024
Loading
Personal Weather Stations






























Interactive Weather Map
Tropical Storm Tracking
New forecast layout! Learn more

10-Day Weather Forecast

Advertisements
Track Severe Weather on mobile